sensor_id;sensor_type;location;lat;lon;timestamp;P1;durP1;ratioP1;P2;durP2;ratioP2
5121;SDS011;2563;52.242;7.956;2024-01-15T00:00:11;9.60;;;3.87;;
5121;SDS011;2563;52.242;7.956;2024-01-15T00:02:37;9.47;;;3.50;;
5121;SDS011;2563;52.242;7.956;2024-01-15T00:05:03;11.87;;;3.40;;
5121;SDS011;2563;52.242;7.956;2024-01-15T00:07:28;6.80;;;2.50;;
5121;SDS011;2563;52.242;7.956;2024-01-15T00:09:54;9.47;;;3.00;;
5121;SDS011;2563;52.242;7.956;2024-01-15T00:12:19;11.00;;;3.57;;
5121;SDS011;2563;52.242;7.956;2024-01-15T00:14:45;11.30;;;3.20;;
5121;SDS011;2563;52.242;7.956;2024-01-15T00:17:10;14.47;;;3.83;;
5121;SDS011;2563;52.242;7.956;2024-01-15T00:19:35;7.30;;;2.40;;
5121;SDS011;2563;52.242;7.956;2024-01-15T00:22:01;10.47;;;2.50;;
5121;SDS011;2563;52.242;7.956;2024-01-15T00:24:26;10.70;;;2.40;;
5121;SDS011;2563;52.242;7.956;2024-01-15T00:26:52;9.60;;;2.30;;
5121;SDS011;2563;52.242;7.956;2024-01-15T00:29:18;10.50;;;2.03;;
5121;SDS011;2563;52.242;7.956;2024-01-15T00:31:44;9.20;;;2.10;;
5121;SDS011;2563;52.242;7.956;2024-01-15T00:34:09;6.80;;;1.80;;
5121;SDS011;2563;52.242;7.956;2024-01-15T00:36:35;11.10;;;1.77;;
5121;SDS011;2563;52.242;7.956;2024-01-15T00:39:01;10.67;;;2.20;;
5121;SDS011;2563;52.242;7.956;2024-01-15T00:41:26;6.37;;;1.27;;
5121;SDS011;2563;52.242;7.956;2024-01-15T00:43:52;7.70;;;1.60;;
5121;SDS011;2563;52.242;7.956;2024-01-15T00:46:18;4.73;;;1.10;;
5121;SDS011;2563;52.242;7.956;2024-01-15T00:48:44;4.40;;;1.20;;
5121;SDS011;2563;52.242;7.956;2024-01-15T00:51:09;12.50;;;1.57;;
5121;SDS011;2563;52.242;7.956;2024-01-15T00:53:34;7.83;;;1.03;;
5121;SDS011;2563;52.242;7.956;2024-01-15T00:56:00;8.70;;;1.43;;
5121;SDS011;2563;52.242;7.956;2024-01-15T00:58:26;12.90;;;1.60;;
5121;SDS011;2563;52.242;7.956;2024-01-15T01:00:52;8.83;;;1.90;;
5121;SDS011;2563;52.242;7.956;2024-01-15T01:03:17;8.23;;;1.60;;
5121;SDS011;2563;52.242;7.956;2024-01-15T01:05:42;8.90;;;2.17;;
5121;SDS011;2563;52.242;7.956;2024-01-15T01:08:09;12.87;;;1.60;;
5121;SDS011;2563;52.242;7.956;2024-01-15T01:10:34;15.17;;;2.47;;
5121;SDS011;2563;52.242;7.956;2024-01-15T01:13:00;9.00;;;1.80;;
5121;SDS011;2563;52.242;7.956;2024-01-15T01:15:25;6.83;;;2.13;;
5121;SDS011;2563;52.242;7.956;2024-01-15T01:17:52;8.17;;;2.00;;
5121;SDS011;2563;52.242;7.956;2024-01-15T01:20:17;13.03;;;1.83;;
5121;SDS011;2563;52.242;7.956;2024-01-15T01:22:43;7.53;;;2.00;;
5121;SDS011;2563;52.242;7.956;2024-01-15T01:25:08;6.50;;;1.90;;
5121;SDS011;2563;52.242;7.956;2024-01-15T01:27:34;10.20;;;2.23;;
5121;SDS011;2563;52.242;7.956;2024-01-15T01:30:00;11.13;;;2.80;;
5121;SDS011;2563;52.242;7.956;2024-01-15T01:32:26;6.33;;;1.67;;
5121;SDS011;2563;52.242;7.956;2024-01-15T01:34:51;11.17;;;2.37;;
5121;SDS011;2563;52.242;7.956;2024-01-15T01:37:16;8.33;;;2.03;;
5121;SDS011;2563;52.242;7.956;2024-01-15T01:39:42;9.93;;;2.23;;
5121;SDS011;2563;52.242;7.956;2024-01-15T01:42:08;7.00;;;1.53;;
5121;SDS011;2563;52.242;7.956;2024-01-15T01:44:33;6.80;;;1.47;;
5121;SDS011;2563;52.242;7.956;2024-01-15T01:46:59;9.00;;;2.00;;
5121;SDS011;2563;52.242;7.956;2024-01-15T01:49:26;5.83;;;1.57;;
5121;SDS011;2563;52.242;7.956;2024-01-15T01:51:52;7.47;;;1.47;;
5121;SDS011;2563;52.242;7.956;2024-01-15T01:54:22;6.70;;;1.80;;
5121;SDS011;2563;52.242;7.956;2024-01-15T01:56:48;8.83;;;1.20;;
5121;SDS011;2563;52.242;7.956;2024-01-15T01:59:15;12.23;;;1.87;;
5121;SDS011;2563;52.242;7.956;2024-01-15T02:01:40;5.60;;;1.67;;
5121;SDS011;2563;52.242;7.956;2024-01-15T02:04:07;3.73;;;0.87;;
5121;SDS011;2563;52.242;7.956;2024-01-15T02:06:33;4.67;;;0.90;;
5121;SDS011;2563;52.242;7.956;2024-01-15T02:08:59;6.97;;;1.40;;
5121;SDS011;2563;52.242;7.956;2024-01-15T02:11:24;5.27;;;1.67;;
5121;SDS011;2563;52.242;7.956;2024-01-15T02:13:50;8.70;;;1.70;;
5121;SDS011;2563;52.242;7.956;2024-01-15T02:16:15;6.37;;;1.10;;
5121;SDS011;2563;52.242;7.956;2024-01-15T02:18:46;5.03;;;1.07;;
5121;SDS011;2563;52.242;7.956;2024-01-15T02:21:12;5.73;;;0.90;;
5121;SDS011;2563;52.242;7.956;2024-01-15T02:23:38;15.20;;;2.63;;
5121;SDS011;2563;52.242;7.956;2024-01-15T02:26:04;10.20;;;1.37;;
5121;SDS011;2563;52.242;7.956;2024-01-15T02:28:30;5.67;;;1.17;;
5121;SDS011;2563;52.242;7.956;2024-01-15T02:30:57;9.33;;;1.20;;
5121;SDS011;2563;52.242;7.956;2024-01-15T02:33:22;4.73;;;1.20;;
5121;SDS011;2563;52.242;7.956;2024-01-15T02:35:48;7.97;;;1.20;;
5121;SDS011;2563;52.242;7.956;2024-01-15T02:38:15;14.17;;;1.27;;
5121;SDS011;2563;52.242;7.956;2024-01-15T02:40:40;4.80;;;1.20;;
5121;SDS011;2563;52.242;7.956;2024-01-15T02:43:06;5.10;;;1.40;;
5121;SDS011;2563;52.242;7.956;2024-01-15T02:45:31;6.67;;;1.40;;
5121;SDS011;2563;52.242;7.956;2024-01-15T02:47:57;7.40;;;1.50;;
5121;SDS011;2563;52.242;7.956;2024-01-15T02:50:22;5.50;;;1.07;;
5121;SDS011;2563;52.242;7.956;2024-01-15T02:52:47;8.00;;;1.40;;
5121;SDS011;2563;52.242;7.956;2024-01-15T02:55:13;7.43;;;2.00;;
5121;SDS011;2563;52.242;7.956;2024-01-15T02:57:38;4.57;;;1.10;;
5121;SDS011;2563;52.242;7.956;2024-01-15T03:00:04;6.43;;;1.50;;
5121;SDS011;2563;52.242;7.956;2024-01-15T03:02:29;17.50;;;2.30;;
5121;SDS011;2563;52.242;7.956;2024-01-15T03:04:57;21.37;;;2.37;;
5121;SDS011;2563;52.242;7.956;2024-01-15T03:07:23;6.00;;;1.10;;
5121;SDS011;2563;52.242;7.956;2024-01-15T03:09:48;13.03;;;1.63;;
5121;SDS011;2563;52.242;7.956;2024-01-15T03:12:13;10.57;;;1.50;;
5121;SDS011;2563;52.242;7.956;2024-01-15T03:14:40;14.73;;;1.27;;
5121;SDS011;2563;52.242;7.956;2024-01-15T03:17:06;8.47;;;1.80;;
5121;SDS011;2563;52.242;7.956;2024-01-15T03:19:34;9.63;;;1.80;;
5121;SDS011;2563;52.242;7.956;2024-01-15T03:22:00;6.63;;;1.37;;
5121;SDS011;2563;52.242;7.956;2024-01-15T03:24:26;4.60;;;1.23;;
5121;SDS011;2563;52.242;7.956;2024-01-15T03:26:51;7.27;;;1.30;;
5121;SDS011;2563;52.242;7.956;2024-01-15T03:29:17;8.20;;;1.80;;
5121;SDS011;2563;52.242;7.956;2024-01-15T03:31:42;5.77;;;1.10;;
5121;SDS011;2563;52.242;7.956;2024-01-15T03:34:07;6.63;;;1.80;;
5121;SDS011;2563;52.242;7.956;2024-01-15T03:36:32;9.47;;;1.50;;
5121;SDS011;2563;52.242;7.956;2024-01-15T03:38:58;11.17;;;1.77;;
5121;SDS011;2563;52.242;7.956;2024-01-15T03:41:23;7.03;;;1.50;;
5121;SDS011;2563;52.242;7.956;2024-01-15T03:43:48;7.33;;;1.03;;
5121;SDS011;2563;52.242;7.956;2024-01-15T03:46:14;4.30;;;0.80;;
5121;SDS011;2563;52.242;7.956;2024-01-15T03:48:39;10.27;;;1.37;;
5121;SDS011;2563;52.242;7.956;2024-01-15T03:51:04;14.27;;;1.30;;
5121;SDS011;2563;52.242;7.956;2024-01-15T03:53:30;5.80;;;1.07;;
5121;SDS011;2563;52.242;7.956;2024-01-15T03:55:55;11.57;;;1.47;;
5121;SDS011;2563;52.242;7.956;2024-01-15T03:58:21;5.77;;;1.10;;
5121;SDS011;2563;52.242;7.956;2024-01-15T04:00:46;8.30;;;1.50;;
5121;SDS011;2563;52.242;7.956;2024-01-15T04:03:12;12.73;;;1.43;;
5121;SDS011;2563;52.242;7.956;2024-01-15T04:05:38;15.70;;;1.30;;
5121;SDS011;2563;52.242;7.956;2024-01-15T04:08:03;13.93;;;1.73;;
5121;SDS011;2563;52.242;7.956;2024-01-15T04:10:29;5.23;;;1.00;;
5121;SDS011;2563;52.242;7.956;2024-01-15T04:12:54;10.30;;;1.50;;
5121;SDS011;2563;52.242;7.956;2024-01-15T04:15:19;5.77;;;2.03;;
5121;SDS011;2563;52.242;7.956;2024-01-15T04:17:45;9.60;;;1.53;;
5121;SDS011;2563;52.242;7.956;2024-01-15T04:20:10;6.53;;;1.60;;
5121;SDS011;2563;52.242;7.956;2024-01-15T04:22:36;7.77;;;1.43;;
5121;SDS011;2563;52.242;7.956;2024-01-15T04:25:02;5.30;;;0.83;;
5121;SDS011;2563;52.242;7.956;2024-01-15T04:27:27;6.90;;;1.70;;
5121;SDS011;2563;52.242;7.956;2024-01-15T04:29:53;7.93;;;1.47;;
5121;SDS011;2563;52.242;7.956;2024-01-15T04:32:18;5.93;;;1.33;;
5121;SDS011;2563;52.242;7.956;2024-01-15T04:34:44;5.00;;;1.00;;
5121;SDS011;2563;52.242;7.956;2024-01-15T04:37:09;7.90;;;1.57;;
5121;SDS011;2563;52.242;7.956;2024-01-15T04:39:35;9.73;;;1.67;;
5121;SDS011;2563;52.242;7.956;2024-01-15T04:42:00;6.90;;;1.10;;
5121;SDS011;2563;52.242;7.956;2024-01-15T04:44:25;10.10;;;1.40;;
5121;SDS011;2563;52.242;7.956;2024-01-15T04:46:51;9.87;;;1.57;;
5121;SDS011;2563;52.242;7.956;2024-01-15T04:49:16;15.80;;;2.00;;
5121;SDS011;2563;52.242;7.956;2024-01-15T04:51:41;12.40;;;1.57;;
5121;SDS011;2563;52.242;7.956;2024-01-15T04:54:07;6.20;;;1.70;;
5121;SDS011;2563;52.242;7.956;2024-01-15T04:56:32;9.43;;;1.10;;
5121;SDS011;2563;52.242;7.956;2024-01-15T04:58:57;7.07;;;1.20;;
5121;SDS011;2563;52.242;7.956;2024-01-15T05:01:23;5.33;;;1.10;;
5121;SDS011;2563;52.242;7.956;2024-01-15T05:03:48;6.67;;;0.80;;
5121;SDS011;2563;52.242;7.956;2024-01-15T05:06:14;4.20;;;0.83;;
5121;SDS011;2563;52.242;7.956;2024-01-15T05:08:39;4.30;;;1.07;;
5121;SDS011;2563;52.242;7.956;2024-01-15T05:11:05;6.33;;;1.10;;
5121;SDS011;2563;52.242;7.956;2024-01-15T05:13:30;3.93;;;0.90;;
5121;SDS011;2563;52.242;7.956;2024-01-15T05:15:55;10.90;;;1.43;;
5121;SDS011;2563;52.242;7.956;2024-01-15T05:18:21;5.83;;;0.90;;
5121;SDS011;2563;52.242;7.956;2024-01-15T05:20:46;4.07;;;1.00;;
5121;SDS011;2563;52.242;7.956;2024-01-15T05:23:11;6.40;;;0.70;;
5121;SDS011;2563;52.242;7.956;2024-01-15T05:25:37;2.57;;;0.50;;
5121;SDS011;2563;52.242;7.956;2024-01-15T05:28:02;4.77;;;1.20;;
5121;SDS011;2563;52.242;7.956;2024-01-15T05:30:28;10.63;;;1.73;;
5121;SDS011;2563;52.242;7.956;2024-01-15T05:32:53;3.90;;;1.00;;
5121;SDS011;2563;52.242;7.956;2024-01-15T05:35:19;7.97;;;0.97;;
5121;SDS011;2563;52.242;7.956;2024-01-15T05:37:45;5.87;;;1.10;;
5121;SDS011;2563;52.242;7.956;2024-01-15T05:40:11;3.57;;;0.70;;
5121;SDS011;2563;52.242;7.956;2024-01-15T05:42:38;3.40;;;0.80;;
5121;SDS011;2563;52.242;7.956;2024-01-15T05:45:03;8.77;;;1.43;;
5121;SDS011;2563;52.242;7.956;2024-01-15T05:47:29;3.13;;;0.80;;
5121;SDS011;2563;52.242;7.956;2024-01-15T05:49:55;8.97;;;1.33;;
5121;SDS011;2563;52.242;7.956;2024-01-15T05:52:21;5.47;;;0.93;;
5121;SDS011;2563;52.242;7.956;2024-01-15T05:54:47;4.63;;;1.10;;
5121;SDS011;2563;52.242;7.956;2024-01-15T05:57:12;8.60;;;1.43;;
5121;SDS011;2563;52.242;7.956;2024-01-15T05:59:38;6.70;;;1.10;;
5121;SDS011;2563;52.242;7.956;2024-01-15T06:02:03;9.17;;;1.00;;
5121;SDS011;2563;52.242;7.956;2024-01-15T06:04:29;3.70;;;1.10;;
5121;SDS011;2563;52.242;7.956;2024-01-15T06:06:54;10.77;;;1.20;;
5121;SDS011;2563;52.242;7.956;2024-01-15T06:09:19;5.73;;;1.10;;
5121;SDS011;2563;52.242;7.956;2024-01-15T06:11:45;6.13;;;1.00;;
5121;SDS011;2563;52.242;7.956;2024-01-15T06:14:10;7.13;;;1.20;;
5121;SDS011;2563;52.242;7.956;2024-01-15T06:16:35;6.17;;;0.90;;
5121;SDS011;2563;52.242;7.956;2024-01-15T06:19:01;6.20;;;1.00;;
5121;SDS011;2563;52.242;7.956;2024-01-15T06:21:26;3.93;;;1.10;;
5121;SDS011;2563;52.242;7.956;2024-01-15T06:23:51;9.33;;;1.10;;
5121;SDS011;2563;52.242;7.956;2024-01-15T06:26:17;3.93;;;0.90;;
5121;SDS011;2563;52.242;7.956;2024-01-15T06:28:42;3.60;;;0.97;;
5121;SDS011;2563;52.242;7.956;2024-01-15T06:31:08;4.57;;;0.97;;
5121;SDS011;2563;52.242;7.956;2024-01-15T06:33:33;5.23;;;1.20;;
5121;SDS011;2563;52.242;7.956;2024-01-15T06:35:59;7.50;;;1.40;;
5121;SDS011;2563;52.242;7.956;2024-01-15T06:38:24;5.13;;;0.80;;
5121;SDS011;2563;52.242;7.956;2024-01-15T06:40:50;9.07;;;1.43;;
5121;SDS011;2563;52.242;7.956;2024-01-15T06:43:17;4.23;;;1.00;;
5121;SDS011;2563;52.242;7.956;2024-01-15T06:45:46;5.43;;;1.47;;
5121;SDS011;2563;52.242;7.956;2024-01-15T06:48:11;7.30;;;1.47;;
5121;SDS011;2563;52.242;7.956;2024-01-15T06:50:39;13.33;;;1.73;;
5121;SDS011;2563;52.242;7.956;2024-01-15T06:53:05;13.63;;;1.03;;
5121;SDS011;2563;52.242;7.956;2024-01-15T06:55:30;5.00;;;1.20;;
5121;SDS011;2563;52.242;7.956;2024-01-15T06:57:56;12.10;;;1.43;;
5121;SDS011;2563;52.242;7.956;2024-01-15T07:00:21;5.40;;;1.30;;
5121;SDS011;2563;52.242;7.956;2024-01-15T07:02:46;6.40;;;1.40;;
5121;SDS011;2563;52.242;7.956;2024-01-15T07:05:12;5.27;;;0.90;;
5121;SDS011;2563;52.242;7.956;2024-01-15T07:07:37;9.77;;;1.10;;
5121;SDS011;2563;52.242;7.956;2024-01-15T07:10:03;4.47;;;0.90;;
5121;SDS011;2563;52.242;7.956;2024-01-15T07:12:29;7.47;;;1.43;;
5121;SDS011;2563;52.242;7.956;2024-01-15T07:14:55;5.87;;;1.03;;
5121;SDS011;2563;52.242;7.956;2024-01-15T07:17:21;4.13;;;0.90;;
5121;SDS011;2563;52.242;7.956;2024-01-15T07:19:46;9.53;;;1.20;;
5121;SDS011;2563;52.242;7.956;2024-01-15T07:22:12;8.20;;;0.80;;
5121;SDS011;2563;52.242;7.956;2024-01-15T07:24:37;3.37;;;0.97;;
5121;SDS011;2563;52.242;7.956;2024-01-15T07:27:03;5.13;;;1.30;;
5121;SDS011;2563;52.242;7.956;2024-01-15T07:29:29;7.67;;;1.20;;
5121;SDS011;2563;52.242;7.956;2024-01-15T07:31:55;7.03;;;0.90;;
5121;SDS011;2563;52.242;7.956;2024-01-15T07:34:20;6.33;;;1.37;;
5121;SDS011;2563;52.242;7.956;2024-01-15T07:36:47;4.63;;;1.07;;
5121;SDS011;2563;52.242;7.956;2024-01-15T07:39:12;8.13;;;1.83;;
5121;SDS011;2563;52.242;7.956;2024-01-15T07:41:38;6.53;;;1.27;;
5121;SDS011;2563;52.242;7.956;2024-01-15T07:44:04;3.63;;;0.87;;
5121;SDS011;2563;52.242;7.956;2024-01-15T07:46:30;3.00;;;0.73;;
5121;SDS011;2563;52.242;7.956;2024-01-15T07:48:55;5.17;;;0.83;;
5121;SDS011;2563;52.242;7.956;2024-01-15T07:51:22;3.80;;;0.80;;
5121;SDS011;2563;52.242;7.956;2024-01-15T07:53:48;3.73;;;1.00;;
5121;SDS011;2563;52.242;7.956;2024-01-15T07:56:17;6.37;;;1.40;;
5121;SDS011;2563;52.242;7.956;2024-01-15T07:58:42;3.23;;;0.73;;
5121;SDS011;2563;52.242;7.956;2024-01-15T08:01:08;5.23;;;1.17;;
5121;SDS011;2563;52.242;7.956;2024-01-15T08:03:33;3.43;;;0.80;;
5121;SDS011;2563;52.242;7.956;2024-01-15T08:05:59;5.10;;;1.10;;
5121;SDS011;2563;52.242;7.956;2024-01-15T08:08:24;3.00;;;0.70;;
5121;SDS011;2563;52.242;7.956;2024-01-15T08:10:51;2.80;;;0.60;;
5121;SDS011;2563;52.242;7.956;2024-01-15T08:13:17;4.20;;;0.87;;
5121;SDS011;2563;52.242;7.956;2024-01-15T08:15:42;3.37;;;0.80;;
5121;SDS011;2563;52.242;7.956;2024-01-15T08:18:08;2.83;;;0.63;;
5121;SDS011;2563;52.242;7.956;2024-01-15T08:20:34;3.17;;;0.63;;
5121;SDS011;2563;52.242;7.956;2024-01-15T08:22:59;5.47;;;0.80;;
5121;SDS011;2563;52.242;7.956;2024-01-15T08:25:24;7.13;;;1.30;;
5121;SDS011;2563;52.242;7.956;2024-01-15T08:27:51;8.33;;;1.20;;
5121;SDS011;2563;52.242;7.956;2024-01-15T08:30:16;5.47;;;0.90;;
5121;SDS011;2563;52.242;7.956;2024-01-15T08:32:43;4.10;;;0.90;;
5121;SDS011;2563;52.242;7.956;2024-01-15T08:35:09;5.17;;;1.20;;
5121;SDS011;2563;52.242;7.956;2024-01-15T08:37:35;4.40;;;1.30;;
5121;SDS011;2563;52.242;7.956;2024-01-15T08:40:00;4.43;;;1.53;;
5121;SDS011;2563;52.242;7.956;2024-01-15T08:42:25;6.20;;;1.70;;
5121;SDS011;2563;52.242;7.956;2024-01-15T08:44:51;5.80;;;1.73;;
5121;SDS011;2563;52.242;7.956;2024-01-15T08:47:16;7.73;;;1.73;;
5121;SDS011;2563;52.242;7.956;2024-01-15T08:49:42;4.50;;;1.23;;
5121;SDS011;2563;52.242;7.956;2024-01-15T08:52:09;9.50;;;2.00;;
5121;SDS011;2563;52.242;7.956;2024-01-15T08:54:35;6.00;;;1.50;;
5121;SDS011;2563;52.242;7.956;2024-01-15T08:57:00;4.80;;;1.70;;
5121;SDS011;2563;52.242;7.956;2024-01-15T08:59:26;9.97;;;2.20;;
5121;SDS011;2563;52.242;7.956;2024-01-15T09:01:52;6.60;;;2.03;;
5121;SDS011;2563;52.242;7.956;2024-01-15T09:04:18;6.27;;;1.80;;
5121;SDS011;2563;52.242;7.956;2024-01-15T09:06:45;7.20;;;1.73;;
5121;SDS011;2563;52.242;7.956;2024-01-15T09:09:11;7.40;;;2.90;;
5121;SDS011;2563;52.242;7.956;2024-01-15T09:11:37;6.20;;;2.23;;
5121;SDS011;2563;52.242;7.956;2024-01-15T09:14:02;6.77;;;2.33;;
5121;SDS011;2563;52.242;7.956;2024-01-15T09:16:28;8.20;;;2.63;;
5121;SDS011;2563;52.242;7.956;2024-01-15T09:18:54;7.70;;;2.23;;
5121;SDS011;2563;52.242;7.956;2024-01-15T09:21:21;5.30;;;2.03;;
5121;SDS011;2563;52.242;7.956;2024-01-15T09:23:47;8.43;;;1.87;;
5121;SDS011;2563;52.242;7.956;2024-01-15T09:26:12;11.40;;;2.77;;
5121;SDS011;2563;52.242;7.956;2024-01-15T09:28:38;10.90;;;3.00;;
5121;SDS011;2563;52.242;7.956;2024-01-15T09:31:03;6.07;;;2.03;;
5121;SDS011;2563;52.242;7.956;2024-01-15T09:33:28;10.73;;;2.97;;
5121;SDS011;2563;52.242;7.956;2024-01-15T09:35:54;9.53;;;2.30;;
5121;SDS011;2563;52.242;7.956;2024-01-15T09:38:19;8.83;;;2.20;;
5121;SDS011;2563;52.242;7.956;2024-01-15T09:40:45;14.53;;;2.60;;
5121;SDS011;2563;52.242;7.956;2024-01-15T09:43:11;5.47;;;1.83;;
5121;SDS011;2563;52.242;7.956;2024-01-15T09:45:37;5.50;;;1.80;;
5121;SDS011;2563;52.242;7.956;2024-01-15T09:48:04;7.10;;;1.80;;
5121;SDS011;2563;52.242;7.956;2024-01-15T09:50:29;11.10;;;2.27;;
5121;SDS011;2563;52.242;7.956;2024-01-15T09:52:55;7.20;;;1.93;;
5121;SDS011;2563;52.242;7.956;2024-01-15T09:55:22;7.87;;;2.50;;
5121;SDS011;2563;52.242;7.956;2024-01-15T09:57:48;8.33;;;1.90;;
5121;SDS011;2563;52.242;7.956;2024-01-15T10:00:14;8.90;;;1.70;;
5121;SDS011;2563;52.242;7.956;2024-01-15T10:02:43;6.60;;;1.80;;
5121;SDS011;2563;52.242;7.956;2024-01-15T10:05:09;5.97;;;2.07;;
5121;SDS011;2563;52.242;7.956;2024-01-15T10:07:35;11.43;;;1.60;;
5121;SDS011;2563;52.242;7.956;2024-01-15T10:10:01;6.00;;;1.60;;
5121;SDS011;2563;52.242;7.956;2024-01-15T10:12:28;6.87;;;1.70;;
5121;SDS011;2563;52.242;7.956;2024-01-15T10:14:53;5.67;;;1.60;;
5121;SDS011;2563;52.242;7.956;2024-01-15T10:17:19;5.93;;;1.80;;
5121;SDS011;2563;52.242;7.956;2024-01-15T10:19:47;4.90;;;1.40;;
5121;SDS011;2563;52.242;7.956;2024-01-15T10:22:16;9.07;;;1.87;;
5121;SDS011;2563;52.242;7.956;2024-01-15T10:24:42;11.03;;;3.60;;
5121;SDS011;2563;52.242;7.956;2024-01-15T10:27:08;19.00;;;5.50;;
5121;SDS011;2563;52.242;7.956;2024-01-15T10:29:34;24.83;;;7.73;;
5121;SDS011;2563;52.242;7.956;2024-01-15T10:32:00;8.63;;;2.00;;
5121;SDS011;2563;52.242;7.956;2024-01-15T10:34:26;14.20;;;3.10;;
5121;SDS011;2563;52.242;7.956;2024-01-15T10:36:52;8.13;;;2.10;;
5121;SDS011;2563;52.242;7.956;2024-01-15T10:39:24;12.33;;;3.27;;
5121;SDS011;2563;52.242;7.956;2024-01-15T10:41:50;12.73;;;4.20;;
5121;SDS011;2563;52.242;7.956;2024-01-15T10:44:18;15.63;;;5.27;;
5121;SDS011;2563;52.242;7.956;2024-01-15T10:46:44;16.83;;;4.90;;
5121;SDS011;2563;52.242;7.956;2024-01-15T10:49:11;14.70;;;4.97;;
5121;SDS011;2563;52.242;7.956;2024-01-15T10:51:36;18.80;;;5.20;;
5121;SDS011;2563;52.242;7.956;2024-01-15T10:54:02;6.13;;;2.30;;
5121;SDS011;2563;52.242;7.956;2024-01-15T10:56:30;7.43;;;1.60;;
5121;SDS011;2563;52.242;7.956;2024-01-15T10:58:57;6.47;;;1.93;;
5121;SDS011;2563;52.242;7.956;2024-01-15T11:01:24;7.73;;;1.90;;
5121;SDS011;2563;52.242;7.956;2024-01-15T11:03:50;9.80;;;1.63;;
5121;SDS011;2563;52.242;7.956;2024-01-15T11:06:18;7.47;;;2.50;;
5121;SDS011;2563;52.242;7.956;2024-01-15T11:08:50;9.63;;;3.40;;
5121;SDS011;2563;52.242;7.956;2024-01-15T11:11:17;12.90;;;2.27;;
5121;SDS011;2563;52.242;7.956;2024-01-15T11:13:43;9.80;;;2.20;;
5121;SDS011;2563;52.242;7.956;2024-01-15T11:16:12;9.27;;;1.73;;
5121;SDS011;2563;52.242;7.956;2024-01-15T11:21:23;6.20;;;2.00;;
5121;SDS011;2563;52.242;7.956;2024-01-15T11:23:55;4.23;;;1.20;;
5121;SDS011;2563;52.242;7.956;2024-01-15T11:29:03;4.00;;;1.33;;
5121;SDS011;2563;52.242;7.956;2024-01-15T11:34:08;8.40;;;2.80;;
5121;SDS011;2563;52.242;7.956;2024-01-15T11:41:55;12.87;;;3.67;;
5121;SDS011;2563;52.242;7.956;2024-01-15T11:44:21;7.07;;;1.43;;
5121;SDS011;2563;52.242;7.956;2024-01-15T11:46:58;6.60;;;1.90;;
5121;SDS011;2563;52.242;7.956;2024-01-15T11:52:10;5.87;;;1.27;;
5121;SDS011;2563;52.242;7.956;2024-01-15T11:54:37;10.30;;;2.80;;
5121;SDS011;2563;52.242;7.956;2024-01-15T11:57:08;10.17;;;2.17;;
5121;SDS011;2563;52.242;7.956;2024-01-15T11:59:41;6.90;;;1.83;;
5121;SDS011;2563;52.242;7.956;2024-01-15T12:02:08;8.43;;;2.10;;
5121;SDS011;2563;52.242;7.956;2024-01-15T12:04:35;11.07;;;1.60;;
5121;SDS011;2563;52.242;7.956;2024-01-15T12:07:01;5.73;;;1.70;;
5121;SDS011;2563;52.242;7.956;2024-01-15T12:09:26;9.07;;;1.67;;
5121;SDS011;2563;52.242;7.956;2024-01-15T12:11:54;8.17;;;1.90;;
5121;SDS011;2563;52.242;7.956;2024-01-15T12:14:30;8.67;;;2.60;;
5121;SDS011;2563;52.242;7.956;2024-01-15T12:16:56;11.47;;;2.60;;
5121;SDS011;2563;52.242;7.956;2024-01-15T12:19:21;6.83;;;1.83;;
5121;SDS011;2563;52.242;7.956;2024-01-15T12:21:47;8.13;;;2.60;;
5121;SDS011;2563;52.242;7.956;2024-01-15T12:24:16;11.17;;;2.33;;
5121;SDS011;2563;52.242;7.956;2024-01-15T12:26:42;6.83;;;1.50;;
5121;SDS011;2563;52.242;7.956;2024-01-15T12:29:07;7.13;;;1.70;;
5121;SDS011;2563;52.242;7.956;2024-01-15T12:31:33;9.20;;;1.90;;
5121;SDS011;2563;52.242;7.956;2024-01-15T12:34:01;6.93;;;1.30;;
5121;SDS011;2563;52.242;7.956;2024-01-15T12:36:26;7.43;;;1.60;;
5121;SDS011;2563;52.242;7.956;2024-01-15T12:38:58;7.03;;;1.10;;
5121;SDS011;2563;52.242;7.956;2024-01-15T12:41:24;5.13;;;1.70;;
5121;SDS011;2563;52.242;7.956;2024-01-15T12:43:50;4.30;;;1.13;;
5121;SDS011;2563;52.242;7.956;2024-01-15T12:46:15;6.00;;;1.67;;
5121;SDS011;2563;52.242;7.956;2024-01-15T12:48:40;5.10;;;1.40;;
5121;SDS011;2563;52.242;7.956;2024-01-15T12:51:06;21.33;;;2.43;;
5121;SDS011;2563;52.242;7.956;2024-01-15T12:53:32;5.03;;;1.37;;
5121;SDS011;2563;52.242;7.956;2024-01-15T12:55:58;7.93;;;1.63;;
5121;SDS011;2563;52.242;7.956;2024-01-15T12:58:23;4.60;;;1.53;;
5121;SDS011;2563;52.242;7.956;2024-01-15T13:00:48;6.10;;;1.60;;
5121;SDS011;2563;52.242;7.956;2024-01-15T13:03:14;7.20;;;1.60;;
5121;SDS011;2563;52.242;7.956;2024-01-15T13:05:40;8.63;;;1.87;;
5121;SDS011;2563;52.242;7.956;2024-01-15T13:08:06;4.70;;;1.40;;
5121;SDS011;2563;52.242;7.956;2024-01-15T13:10:32;4.53;;;1.27;;
5121;SDS011;2563;52.242;7.956;2024-01-15T13:12:57;4.40;;;1.20;;
5121;SDS011;2563;52.242;7.956;2024-01-15T13:15:23;6.30;;;1.60;;
5121;SDS011;2563;52.242;7.956;2024-01-15T13:17:48;10.27;;;1.67;;
5121;SDS011;2563;52.242;7.956;2024-01-15T13:20:14;4.30;;;1.47;;
5121;SDS011;2563;52.242;7.956;2024-01-15T13:22:39;4.40;;;1.23;;
5121;SDS011;2563;52.242;7.956;2024-01-15T13:25:05;5.93;;;1.50;;
5121;SDS011;2563;52.242;7.956;2024-01-15T13:27:32;5.00;;;0.90;;
5121;SDS011;2563;52.242;7.956;2024-01-15T13:30:00;5.23;;;1.63;;
5121;SDS011;2563;52.242;7.956;2024-01-15T13:32:25;5.23;;;1.37;;
5121;SDS011;2563;52.242;7.956;2024-01-15T13:34:55;6.57;;;1.60;;
5121;SDS011;2563;52.242;7.956;2024-01-15T13:37:21;6.90;;;0.93;;
5121;SDS011;2563;52.242;7.956;2024-01-15T13:39:49;5.10;;;1.03;;
5121;SDS011;2563;52.242;7.956;2024-01-15T13:42:15;10.57;;;0.90;;
5121;SDS011;2563;52.242;7.956;2024-01-15T13:44:40;4.23;;;1.30;;
5121;SDS011;2563;52.242;7.956;2024-01-15T13:47:06;12.53;;;1.17;;
5121;SDS011;2563;52.242;7.956;2024-01-15T13:49:31;4.63;;;1.30;;
5121;SDS011;2563;52.242;7.956;2024-01-15T13:51:59;6.80;;;1.60;;
5121;SDS011;2563;52.242;7.956;2024-01-15T13:54:24;10.43;;;1.20;;
5121;SDS011;2563;52.242;7.956;2024-01-15T13:56:49;7.33;;;1.33;;
5121;SDS011;2563;52.242;7.956;2024-01-15T13:59:15;3.17;;;0.90;;
5121;SDS011;2563;52.242;7.956;2024-01-15T14:01:40;10.80;;;1.67;;
5121;SDS011;2563;52.242;7.956;2024-01-15T14:04:05;5.50;;;1.10;;
5121;SDS011;2563;52.242;7.956;2024-01-15T14:06:31;3.93;;;1.10;;
5121;SDS011;2563;52.242;7.956;2024-01-15T14:08:56;9.23;;;1.70;;
5121;SDS011;2563;52.242;7.956;2024-01-15T14:11:21;9.80;;;2.57;;
5121;SDS011;2563;52.242;7.956;2024-01-15T14:13:48;8.03;;;1.80;;
5121;SDS011;2563;52.242;7.956;2024-01-15T14:16:13;11.47;;;2.60;;
5121;SDS011;2563;52.242;7.956;2024-01-15T14:18:38;11.70;;;2.10;;
5121;SDS011;2563;52.242;7.956;2024-01-15T14:21:04;7.90;;;2.40;;
5121;SDS011;2563;52.242;7.956;2024-01-15T14:23:29;5.53;;;1.50;;
5121;SDS011;2563;52.242;7.956;2024-01-15T14:25:54;7.30;;;2.23;;
5121;SDS011;2563;52.242;7.956;2024-01-15T14:28:20;6.93;;;2.17;;
5121;SDS011;2563;52.242;7.956;2024-01-15T14:30:46;4.40;;;1.20;;
5121;SDS011;2563;52.242;7.956;2024-01-15T14:33:11;4.87;;;1.97;;
5121;SDS011;2563;52.242;7.956;2024-01-15T14:35:36;3.80;;;1.10;;
5121;SDS011;2563;52.242;7.956;2024-01-15T14:38:02;4.17;;;0.97;;
5121;SDS011;2563;52.242;7.956;2024-01-15T14:40:27;4.23;;;0.80;;
5121;SDS011;2563;52.242;7.956;2024-01-15T14:42:52;3.80;;;1.07;;
5121;SDS011;2563;52.242;7.956;2024-01-15T14:45:18;4.80;;;1.10;;
5121;SDS011;2563;52.242;7.956;2024-01-15T14:47:43;9.37;;;1.27;;
5121;SDS011;2563;52.242;7.956;2024-01-15T14:50:09;4.67;;;1.33;;
5121;SDS011;2563;52.242;7.956;2024-01-15T14:52:37;14.20;;;1.60;;
5121;SDS011;2563;52.242;7.956;2024-01-15T14:55:04;3.37;;;1.10;;
5121;SDS011;2563;52.242;7.956;2024-01-15T14:57:29;7.50;;;1.07;;
5121;SDS011;2563;52.242;7.956;2024-01-15T14:59:55;5.90;;;1.13;;
5121;SDS011;2563;52.242;7.956;2024-01-15T15:02:20;4.33;;;1.10;;
5121;SDS011;2563;52.242;7.956;2024-01-15T15:04:46;6.77;;;1.27;;
5121;SDS011;2563;52.242;7.956;2024-01-15T15:07:11;4.90;;;1.67;;
5121;SDS011;2563;52.242;7.956;2024-01-15T15:09:36;8.30;;;0.90;;
5121;SDS011;2563;52.242;7.956;2024-01-15T15:12:03;5.60;;;1.27;;
5121;SDS011;2563;52.242;7.956;2024-01-15T15:14:30;5.87;;;1.50;;
5121;SDS011;2563;52.242;7.956;2024-01-15T15:16:56;4.33;;;1.07;;
5121;SDS011;2563;52.242;7.956;2024-01-15T15:19:22;8.47;;;1.60;;